Strona główna
METAR-TAF:

METAR-TAF

Lotnisko :

Port lotniczy Huesca

Huesca, Hiszpania

Szerokość geograficzna: 42-04-32N, Długość geograficzna: 0-18-58W, wysokość: 539 m

Aktualna obserwacja pogody

Raport powstał 23 minut temu, godzina 09:00 UTC
Wiatr 10 kt od wschód, zmienny między północny wschód i wschodnio-południowy wschód
Temperatura 27°C
Wilgotność 45%
Ciśnienie 1022 hPa
Widzialność 10 km lub więcej
Brak chmur poniżej 1500 m i brak chmur cumulonimbus

METAR: LEHC 210900Z 08010KT 050V110 CAVOK 27/14 Q1022

czas: 11:23 (09:23 UTC)

Prognoza

Raport powstał 1 godzina i 23 minut temu, godzina 08:00 UTC
Prognoza ważna od 21 godzina 09 UTC do 22 godzina 09 UTC
Wiatr 9 kt od wschód
Widzialność 10 km lub więcej
Mało chmury na wysokości 4000 ft

TAF: LEHC 210800Z 2109/2209 09009KT 9999 FEW040 TX36/2115Z TN22/2205Z

Obserwacja i prognoza pogody dla ponad 4000 lotnisk (raport METAR i TAF).

Dostępne stacje oznaczono żółtymi i czerwonymi punktami na mapie.

Najedź kursorem aby zobaczyć nazwę stacji.

Kliknij aby zobaczyć obserwacje i prognozy pogody.

Aby zmienić mapę: kliknij na zielony przycisk z czarnym krzyżykiem, aby powiększyć; na zielony przycisk z myślnikiem, aby pomniejszyć; na zielone strzałki, aby przejść do map sąsiednich.


METAR-TAF: